createdAt,value
2022-10-06T00:00:07.205Z,15.18
2022-10-06T00:02:36.251Z,15.19
2022-10-06T00:05:04.978Z,15.16
2022-10-06T00:07:32.953Z,15.16
2022-10-06T00:10:00.912Z,15.17
2022-10-06T00:12:30.277Z,15.09
2022-10-06T00:14:58.240Z,15.10
2022-10-06T00:17:27.040Z,15.06
2022-10-06T00:19:54.910Z,15.04
2022-10-06T00:22:22.805Z,15.04
2022-10-06T00:24:50.703Z,15.05
2022-10-06T00:27:18.755Z,15.04
2022-10-06T00:29:48.016Z,14.98
2022-10-06T00:32:15.888Z,14.99
2022-10-06T00:34:44.146Z,14.95
2022-10-06T00:37:12.013Z,14.93
2022-10-06T00:39:39.926Z,14.94
2022-10-06T00:42:20.905Z,14.90
2022-10-06T00:44:51.444Z,14.87
2022-10-06T00:47:20.006Z,14.82
2022-10-06T00:49:48.146Z,14.73
2022-10-06T00:52:18.506Z,14.67
2022-10-06T00:54:46.527Z,14.69
2022-10-06T00:57:14.513Z,14.70
2022-10-06T00:59:42.461Z,14.63
2022-10-06T01:02:16.866Z,14.59
2022-10-06T01:04:48.060Z,14.62
2022-10-06T01:07:17.933Z,14.50
2022-10-06T01:09:46.214Z,14.48
2022-10-06T01:12:14.589Z,14.38
2022-10-06T01:14:42.994Z,14.49
2022-10-06T01:17:15.686Z,14.43
2022-10-06T01:19:49.618Z,14.31
2022-10-06T01:22:19.040Z,14.31
2022-10-06T01:24:50.733Z,14.25
2022-10-06T01:27:19.321Z,14.30
2022-10-06T01:29:47.278Z,14.28
2022-10-06T01:32:16.018Z,14.12
2022-10-06T01:34:43.949Z,14.10
2022-10-06T01:37:11.953Z,14.13
2022-10-06T01:39:39.842Z,14.09
2022-10-06T01:42:09.229Z,14.02
2022-10-06T01:44:37.826Z,14.10
2022-10-06T01:47:07.191Z,14.12
2022-10-06T01:49:35.465Z,13.96
2022-10-06T01:52:04.802Z,13.97
2022-10-06T01:54:33.090Z,13.95
2022-10-06T01:57:01.004Z,13.88
2022-10-06T01:59:30.351Z,13.86
2022-10-06T02:01:58.435Z,13.85
2022-10-06T02:04:26.480Z,13.84
2022-10-06T02:06:55.584Z,13.80
2022-10-06T02:09:23.633Z,13.86
2022-10-06T02:11:51.752Z,13.87
2022-10-06T02:14:19.766Z,13.86
2022-10-06T02:16:49.059Z,13.83
2022-10-06T02:19:17.258Z,13.77
2022-10-06T02:21:45.143Z,13.81
2022-10-06T02:24:13.130Z,13.80
2022-10-06T02:26:41.025Z,13.79
2022-10-06T02:29:08.954Z,13.76
2022-10-06T02:31:36.913Z,13.82
2022-10-06T02:34:06.271Z,13.82
2022-10-06T02:36:34.182Z,13.78
2022-10-06T02:39:02.126Z,13.78
2022-10-06T02:41:30.138Z,13.79
2022-10-06T02:43:58.016Z,13.76
2022-10-06T02:46:26.367Z,13.79
2022-10-06T02:48:54.803Z,13.77
2022-10-06T02:51:24.440Z,13.74
2022-10-06T02:53:52.894Z,13.68
2022-10-06T02:56:22.265Z,13.65
2022-10-06T02:58:51.122Z,13.68
2022-10-06T03:01:21.275Z,13.66
2022-10-06T03:03:49.454Z,13.64
2022-10-06T03:06:25.194Z,13.59
2022-10-06T03:08:56.162Z,13.49
2022-10-06T03:11:26.298Z,13.54
2022-10-06T03:13:54.399Z,13.56
2022-10-06T03:16:24.135Z,13.49
2022-10-06T03:18:54.525Z,13.41
2022-10-06T03:21:24.543Z,13.34
2022-10-06T03:23:54.647Z,13.40
2022-10-06T03:26:24.665Z,13.29
2022-10-06T03:28:53.134Z,13.28
2022-10-06T03:31:21.438Z,13.24
2022-10-06T03:33:49.549Z,13.21
2022-10-06T03:36:19.868Z,13.24
2022-10-06T03:38:48.051Z,13.22
2022-10-06T03:41:19.225Z,13.17
2022-10-06T03:43:48.556Z,13.24
2022-10-06T03:46:19.849Z,13.16
2022-10-06T03:48:48.445Z,13.15
2022-10-06T03:51:17.622Z,13.17
2022-10-06T03:53:46.321Z,13.06
2022-10-06T03:56:15.558Z,13.13
2022-10-06T03:58:46.671Z,13.07
2022-10-06T04:01:16.835Z,13.06
2022-10-06T04:03:45.037Z,13.02
2022-10-06T04:06:14.627Z,13.04
2022-10-06T04:08:43.404Z,12.89
2022-10-06T04:11:13.233Z,12.95
2022-10-06T04:13:42.093Z,12.91
2022-10-06T04:16:16.639Z,12.82
2022-10-06T04:18:45.381Z,12.78
2022-10-06T04:21:13.860Z,12.80
2022-10-06T04:23:41.875Z,12.72
2022-10-06T04:26:13.517Z,12.80
2022-10-06T04:28:44.154Z,12.71
2022-10-06T04:31:16.396Z,12.79
2022-10-06T04:33:45.948Z,12.63
2022-10-06T04:36:16.806Z,12.68
2022-10-06T04:38:44.968Z,12.61
2022-10-06T04:41:14.691Z,12.70
2022-10-06T04:43:42.871Z,12.63
2022-10-06T04:46:37.511Z,12.72
2022-10-06T04:49:00.825Z,12.53
2022-10-06T04:51:29.766Z,12.55
2022-10-06T04:53:57.695Z,12.57
2022-10-06T04:56:27.592Z,12.52
2022-10-06T04:58:56.578Z,12.53
2022-10-06T05:01:25.493Z,12.53
2022-10-06T05:03:55.932Z,12.52
2022-10-06T05:06:26.558Z,12.55
2022-10-06T05:08:55.758Z,12.45
2022-10-06T05:11:25.955Z,12.40
2022-10-06T05:13:57.131Z,12.57
2022-10-06T05:16:27.415Z,12.53
2022-10-06T05:18:55.674Z,12.43
2022-10-06T05:21:26.364Z,12.42
2022-10-06T05:23:54.397Z,12.41
2022-10-06T05:26:23.603Z,12.46
2022-10-06T05:28:51.932Z,12.38
2022-10-06T05:31:21.588Z,12.33
2022-10-06T05:33:50.093Z,12.33
2022-10-06T05:36:20.217Z,12.31
2022-10-06T05:38:49.623Z,12.27
2022-10-06T05:41:19.089Z,12.29
2022-10-06T05:43:47.294Z,12.25
2022-10-06T05:46:20.395Z,12.26
2022-10-06T05:48:49.368Z,12.35
2022-10-06T05:51:19.141Z,12.33
2022-10-06T05:53:48.605Z,12.29
2022-10-06T05:56:19.357Z,12.27
2022-10-06T05:58:48.703Z,12.20
2022-10-06T06:01:18.926Z,12.26
2022-10-06T06:03:49.343Z,12.21
2022-10-06T06:06:19.373Z,12.19
2022-10-06T06:08:48.082Z,12.30
2022-10-06T06:11:17.401Z,12.29
2022-10-06T06:13:45.496Z,12.28
2022-10-06T06:16:15.221Z,12.23
2022-10-06T06:18:43.281Z,12.27
2022-10-06T06:21:11.813Z,12.21
2022-10-06T06:23:41.428Z,12.22
2022-10-06T06:26:11.258Z,12.24
2022-10-06T06:28:41.460Z,12.30
2022-10-06T06:31:12.506Z,12.23
2022-10-06T06:33:43.105Z,12.25
2022-10-06T06:36:14.490Z,12.32
2022-10-06T06:38:42.551Z,12.35
2022-10-06T06:41:17.782Z,12.33
2022-10-06T06:43:47.997Z,12.34
2022-10-06T06:46:16.832Z,12.27
2022-10-06T06:48:45.407Z,12.33
2022-10-06T06:51:13.341Z,12.33
2022-10-06T06:53:41.527Z,12.39
2022-10-06T06:56:10.562Z,12.38
2022-10-06T06:58:39.114Z,12.38
2022-10-06T07:01:13.817Z,12.44
2022-10-06T07:03:58.579Z,12.48
2022-10-06T07:06:28.719Z,12.47
2022-10-06T07:08:57.724Z,12.50
2022-10-06T07:11:27.095Z,12.54
2022-10-06T07:13:57.690Z,12.56
2022-10-06T07:16:44.644Z,12.62
2022-10-06T07:19:30.393Z,12.64
2022-10-06T07:22:17.264Z,12.68
2022-10-06T07:25:03.466Z,12.72
2022-10-06T07:27:32.772Z,12.77
2022-10-06T07:30:00.788Z,12.78
2022-10-06T07:32:31.382Z,12.80
2022-10-06T07:34:59.472Z,12.81
2022-10-06T07:37:28.870Z,12.83
2022-10-06T07:39:56.777Z,12.91
2022-10-06T07:42:24.652Z,12.89
2022-10-06T07:45:06.501Z,12.92
2022-10-06T07:47:38.282Z,13.00
2022-10-06T07:50:07.174Z,13.04
2022-10-06T07:52:39.212Z,13.16
2022-10-06T07:55:08.186Z,13.13
2022-10-06T07:57:36.083Z,13.20
2022-10-06T08:00:07.455Z,13.13
2022-10-06T08:02:36.887Z,13.21
2022-10-06T08:05:05.258Z,13.33
2022-10-06T08:07:33.168Z,13.34
2022-10-06T08:10:01.227Z,13.41
2022-10-06T08:12:37.367Z,13.44
2022-10-06T08:15:07.579Z,13.60
2022-10-06T08:17:37.550Z,13.57
2022-10-06T08:20:06.834Z,13.58
2022-10-06T08:22:36.297Z,13.63
2022-10-06T08:25:06.588Z,13.69
2022-10-06T08:27:35.681Z,13.75
2022-10-06T08:30:03.957Z,13.75
2022-10-06T08:32:32.177Z,13.87
2022-10-06T08:35:01.608Z,13.92
2022-10-06T08:37:29.526Z,14.00
2022-10-06T08:39:57.899Z,14.04
2022-10-06T08:42:33.992Z,14.05
2022-10-06T08:45:05.105Z,14.13
2022-10-06T08:47:36.379Z,14.18
2022-10-06T08:50:09.978Z,14.17
2022-10-06T08:52:47.954Z,14.31
2022-10-06T08:55:32.416Z,14.42
2022-10-06T08:58:08.146Z,14.61
2022-10-06T09:00:36.925Z,14.56
2022-10-06T09:03:05.806Z,14.74
2022-10-06T09:05:35.301Z,14.62
2022-10-06T09:08:17.455Z,14.67
2022-10-06T09:10:49.765Z,14.80
2022-10-06T09:13:22.108Z,14.71
2022-10-06T09:15:51.901Z,14.74
2022-10-06T09:18:23.563Z,14.83
2022-10-06T09:20:55.150Z,14.63
2022-10-06T09:23:43.956Z,14.73
2022-10-06T09:26:13.756Z,14.72
2022-10-06T09:28:42.306Z,14.80
2022-10-06T09:31:21.890Z,14.90
2022-10-06T09:33:53.180Z,14.91
2022-10-06T09:36:24.230Z,15.08
2022-10-06T09:38:54.362Z,15.14
2022-10-06T09:41:26.375Z,15.23
2022-10-06T09:43:57.793Z,15.35
2022-10-06T09:46:32.451Z,15.31
2022-10-06T09:49:17.989Z,15.46
2022-10-06T09:52:03.198Z,15.47
2022-10-06T09:54:31.673Z,15.45
2022-10-06T09:57:00.105Z,15.34
2022-10-06T09:59:39.067Z,15.46
2022-10-06T10:02:24.864Z,15.38
2022-10-06T10:04:55.244Z,15.38
2022-10-06T10:07:26.133Z,15.48
2022-10-06T10:09:54.955Z,15.65
2022-10-06T10:12:27.836Z,15.90
2022-10-06T10:14:58.202Z,16.19
2022-10-06T10:17:36.342Z,16.53
2022-10-06T10:20:08.358Z,16.14
2022-10-06T10:22:39.204Z,15.77
2022-10-06T10:25:14.497Z,15.82
2022-10-06T10:27:49.510Z,15.77
2022-10-06T10:30:17.534Z,16.01
2022-10-06T10:32:51.867Z,15.93
2022-10-06T10:35:24.782Z,16.02
2022-10-06T10:37:58.946Z,15.99
2022-10-06T10:40:31.414Z,16.08
2022-10-06T10:43:22.357Z,16.05
2022-10-06T10:45:52.853Z,15.87
2022-10-06T10:48:25.485Z,16.03
2022-10-06T10:51:00.263Z,16.49
2022-10-06T10:53:35.649Z,16.84
2022-10-06T10:56:08.989Z,16.99
2022-10-06T10:58:37.954Z,17.20
2022-10-06T11:01:13.297Z,17.07
2022-10-06T11:03:41.277Z,17.21
2022-10-06T11:06:33.482Z,16.95
2022-10-06T11:09:04.845Z,17.22
2022-10-06T11:11:43.540Z,17.26
2022-10-06T11:14:21.263Z,17.26
2022-10-06T11:16:52.857Z,17.49
2022-10-06T11:19:27.585Z,17.72
2022-10-06T11:21:59.749Z,17.47
2022-10-06T11:24:34.165Z,17.42
2022-10-06T11:27:13.386Z,17.62
2022-10-06T11:29:51.611Z,17.44
2022-10-06T11:32:26.570Z,17.18
2022-10-06T11:34:54.917Z,17.03
2022-10-06T11:37:32.995Z,17.09
2022-10-06T11:40:17.855Z,16.88
2022-10-06T11:42:49.436Z,16.88
2022-10-06T11:45:19.707Z,16.59
2022-10-06T11:48:01.179Z,16.90
2022-10-06T11:50:36.609Z,16.57
2022-10-06T11:53:05.675Z,16.71
2022-10-06T11:55:34.946Z,16.26
2022-10-06T12:01:02.193Z,16.36
2022-10-06T12:03:50.674Z,16.38
2022-10-06T12:07:03.371Z,17.20
2022-10-06T12:09:53.547Z,17.44
2022-10-06T12:12:45.901Z,17.71
2022-10-06T12:18:28.945Z,17.55
2022-10-06T12:21:06.518Z,16.97
2022-10-06T12:23:44.093Z,16.92
2022-10-06T12:26:21.912Z,17.61
2022-10-06T12:28:55.704Z,17.86
2022-10-06T12:31:39.956Z,18.17
2022-10-06T12:34:41.052Z,18.14
2022-10-06T12:37:23.042Z,17.91
2022-10-06T12:39:50.986Z,18.18
2022-10-06T12:42:21.032Z,17.67
2022-10-06T12:44:51.707Z,17.84
2022-10-06T12:47:22.983Z,18.16
2022-10-06T12:49:53.946Z,18.17
2022-10-06T12:52:35.333Z,18.30
2022-10-06T12:55:22.387Z,18.03
2022-10-06T12:57:53.441Z,18.15
2022-10-06T13:00:33.196Z,18.16
2022-10-06T13:03:03.311Z,17.84
2022-10-06T13:05:31.568Z,18.26
2022-10-06T13:08:01.062Z,18.13
2022-10-06T13:10:30.494Z,18.86
2022-10-06T13:12:59.091Z,18.18
2022-10-06T13:18:11.698Z,18.66
2022-10-06T13:20:41.795Z,18.60
2022-10-06T13:23:22.910Z,18.93
2022-10-06T13:25:53.922Z,19.04
2022-10-06T13:28:27.403Z,18.83
2022-10-06T13:30:58.446Z,19.07
2022-10-06T13:33:29.749Z,19.37
2022-10-06T13:35:59.223Z,18.97
2022-10-06T13:38:31.762Z,18.67
2022-10-06T13:41:19.413Z,19.43
2022-10-06T13:43:49.876Z,19.33
2022-10-06T13:46:21.896Z,19.38
2022-10-06T13:48:52.705Z,19.00
2022-10-06T13:51:23.170Z,18.95
2022-10-06T13:53:52.021Z,19.47
2022-10-06T13:56:35.691Z,19.31
2022-10-06T13:59:32.408Z,19.94
2022-10-06T14:02:04.428Z,19.05
2022-10-06T14:04:34.729Z,18.81
2022-10-06T14:07:05.617Z,19.47
2022-10-06T14:09:34.528Z,19.60
2022-10-06T14:12:04.850Z,18.98
2022-10-06T14:14:32.981Z,19.72
2022-10-06T14:17:02.454Z,19.95
2022-10-06T14:19:34.077Z,19.25
2022-10-06T14:22:02.418Z,19.37
2022-10-06T14:24:34.054Z,19.49
2022-10-06T14:27:03.942Z,19.87
2022-10-06T14:29:34.204Z,20.19
2022-10-06T14:32:11.172Z,20.66
2022-10-06T14:34:40.624Z,20.60
2022-10-06T14:37:15.282Z,20.25
2022-10-06T14:39:43.734Z,19.75
2022-10-06T14:42:12.206Z,19.81
2022-10-06T14:44:40.274Z,20.28
2022-10-06T14:47:10.478Z,20.04
2022-10-06T14:49:38.601Z,19.44
2022-10-06T14:52:09.130Z,19.52
2022-10-06T14:54:37.763Z,18.70
2022-10-06T14:57:05.712Z,18.55
2022-10-06T14:59:33.651Z,18.90
2022-10-06T15:02:01.535Z,19.93
2022-10-06T15:04:31.437Z,19.49
2022-10-06T15:07:16.839Z,19.95
2022-10-06T15:09:44.713Z,20.42
2022-10-06T15:12:12.592Z,19.89
2022-10-06T15:14:40.493Z,20.07
2022-10-06T15:17:08.636Z,20.30
2022-10-06T15:19:37.946Z,19.48
2022-10-06T15:22:06.346Z,19.23
2022-10-06T15:24:34.281Z,18.72
2022-10-06T15:27:24.575Z,19.06
2022-10-06T15:29:52.912Z,18.20
2022-10-06T15:32:20.800Z,18.85
2022-10-06T15:34:51.953Z,18.06
2022-10-06T15:37:20.334Z,18.36
2022-10-06T15:39:48.217Z,18.27
2022-10-06T15:42:18.790Z,17.97
2022-10-06T15:44:46.879Z,17.73
2022-10-06T15:47:14.849Z,17.69
2022-10-06T15:49:42.759Z,17.77
2022-10-06T15:52:14.021Z,17.59
2022-10-06T15:54:42.250Z,17.74
2022-10-06T15:57:14.968Z,17.45
2022-10-06T15:59:45.962Z,17.25
2022-10-06T16:02:16.230Z,17.22
2022-10-06T16:04:56.834Z,17.79
2022-10-06T16:07:26.154Z,17.12
2022-10-06T16:09:54.206Z,16.65
2022-10-06T16:12:24.856Z,16.96
2022-10-06T16:14:53.169Z,16.52
2022-10-06T16:17:21.058Z,16.73
2022-10-06T16:19:49.747Z,16.42
2022-10-06T16:22:19.394Z,16.72
2022-10-06T16:24:48.716Z,16.71
2022-10-06T16:27:16.941Z,16.17
2022-10-06T16:29:44.952Z,15.63
2022-10-06T16:32:12.898Z,16.20
2022-10-06T16:34:40.784Z,15.81
2022-10-06T16:37:08.693Z,15.60
2022-10-06T16:39:36.573Z,15.32
2022-10-06T16:42:06.086Z,15.38
2022-10-06T16:44:34.053Z,15.25
2022-10-06T16:47:02.014Z,15.25
2022-10-06T16:49:29.959Z,15.22
2022-10-06T16:51:57.881Z,14.98
2022-10-06T16:54:25.762Z,15.20
2022-10-06T16:56:54.390Z,14.92
2022-10-06T16:59:26.067Z,15.23
2022-10-06T17:01:54.040Z,15.06
2022-10-06T17:04:23.152Z,14.81
2022-10-06T17:06:52.881Z,14.59
2022-10-06T17:09:22.494Z,14.40
2022-10-06T17:11:51.869Z,14.29
2022-10-06T17:14:21.244Z,14.20
2022-10-06T17:16:53.878Z,14.21
2022-10-06T17:19:24.199Z,14.27
2022-10-06T17:21:58.266Z,14.00
2022-10-06T17:24:28.498Z,14.28
2022-10-06T17:26:57.838Z,14.26
2022-10-06T17:29:26.443Z,14.11
2022-10-06T17:31:59.009Z,13.99
2022-10-06T17:34:32.291Z,13.81
2022-10-06T17:37:01.930Z,13.88
2022-10-06T17:39:30.009Z,13.76
2022-10-06T17:41:57.915Z,13.74
2022-10-06T17:44:26.960Z,13.62
2022-10-06T17:46:57.179Z,13.76
2022-10-06T17:49:25.908Z,13.79
2022-10-06T17:51:55.124Z,13.74
2022-10-06T17:54:24.265Z,13.99
2022-10-06T17:56:54.247Z,13.71
2022-10-06T17:59:23.490Z,13.51
2022-10-06T18:01:52.281Z,13.48
2022-10-06T18:04:21.749Z,13.57
2022-10-06T18:06:49.791Z,13.72
2022-10-06T18:09:18.398Z,13.59
2022-10-06T18:11:48.357Z,13.55
2022-10-06T18:14:18.324Z,13.52
2022-10-06T18:16:52.114Z,13.41
2022-10-06T18:19:26.620Z,13.35
2022-10-06T18:21:56.612Z,13.08
2022-10-06T18:24:26.281Z,13.17
2022-10-06T18:26:56.200Z,13.22
2022-10-06T18:29:28.056Z,13.06
2022-10-06T18:32:01.544Z,13.01
2022-10-06T18:37:32.606Z,13.06
2022-10-06T18:40:02.415Z,13.03
2022-10-06T18:42:30.337Z,13.02
2022-10-06T18:45:15.493Z,12.87
2022-10-06T18:48:00.918Z,12.84
2022-10-06T18:50:31.050Z,12.89
2022-10-06T18:52:59.029Z,12.87
2022-10-06T18:55:29.675Z,12.99
2022-10-06T18:57:57.861Z,12.79
2022-10-06T19:00:26.048Z,12.80
2022-10-06T19:02:55.545Z,12.70
2022-10-06T19:05:23.714Z,12.80
2022-10-06T19:07:55.051Z,12.70
2022-10-06T19:10:22.999Z,12.77
2022-10-06T19:12:50.957Z,12.78
2022-10-06T19:15:21.006Z,12.75
2022-10-06T19:17:49.609Z,12.82
2022-10-06T19:20:18.474Z,12.61
2022-10-06T19:22:47.703Z,12.60
2022-10-06T19:25:19.314Z,12.57
2022-10-06T19:27:47.422Z,12.67
2022-10-06T19:30:15.918Z,12.65
2022-10-06T19:32:43.951Z,12.50
2022-10-06T19:35:11.857Z,12.60
2022-10-06T19:37:40.701Z,12.59
2022-10-06T19:40:11.398Z,12.62
2022-10-06T19:42:49.109Z,12.69
2022-10-06T19:45:18.517Z,12.59
2022-10-06T19:47:47.226Z,12.41
2022-10-06T19:50:16.294Z,12.55
2022-10-06T19:52:44.241Z,12.38
2022-10-06T19:55:12.130Z,12.28
2022-10-06T19:57:43.202Z,12.33
2022-10-06T20:00:12.585Z,12.36
2022-10-06T20:02:42.751Z,12.51
2022-10-06T20:05:12.477Z,12.46
2022-10-06T20:07:40.678Z,12.46
2022-10-06T20:10:09.078Z,12.22
2022-10-06T20:12:38.353Z,12.33
2022-10-06T20:15:08.546Z,12.26
2022-10-06T20:17:36.433Z,12.22
2022-10-06T20:20:04.489Z,12.27
2022-10-06T20:22:32.709Z,12.13
2022-10-06T20:25:01.953Z,12.21
2022-10-06T20:27:29.995Z,12.15
2022-10-06T20:29:58.299Z,12.22
2022-10-06T20:32:27.778Z,12.00
2022-10-06T20:34:55.693Z,12.02
2022-10-06T20:37:23.652Z,12.01
2022-10-06T20:40:08.810Z,11.87
2022-10-06T20:42:36.720Z,11.79
2022-10-06T20:45:05.031Z,11.91
2022-10-06T20:47:34.308Z,11.87
2022-10-06T20:50:02.188Z,11.91
2022-10-06T20:52:31.649Z,11.95
2022-10-06T20:54:59.561Z,11.86
2022-10-06T20:57:33.497Z,11.75
2022-10-06T21:00:01.736Z,11.69
2022-10-06T21:02:30.563Z,11.82
2022-10-06T21:05:01.538Z,11.61
2022-10-06T21:07:29.427Z,11.53
2022-10-06T21:09:57.313Z,11.46
2022-10-06T21:12:25.308Z,11.56
2022-10-06T21:14:53.210Z,11.52
2022-10-06T21:17:21.143Z,11.58
2022-10-06T21:19:49.058Z,11.57
2022-10-06T21:22:18.415Z,11.57
2022-10-06T21:24:46.337Z,11.44
2022-10-06T21:27:14.205Z,11.48
2022-10-06T21:29:42.690Z,11.47
2022-10-06T21:32:10.683Z,11.45
2022-10-06T21:34:40.164Z,11.49
2022-10-06T21:37:08.059Z,11.58
2022-10-06T21:39:37.576Z,11.52
2022-10-06T21:42:05.544Z,11.37
2022-10-06T21:44:33.460Z,11.37
2022-10-06T21:47:02.687Z,11.30
2022-10-06T21:49:30.747Z,11.26
2022-10-06T21:52:03.581Z,11.23
2022-10-06T21:54:31.771Z,11.29
2022-10-06T21:57:01.032Z,11.22
2022-10-06T21:59:28.920Z,11.30
2022-10-06T22:01:57.012Z,11.30
2022-10-06T22:04:25.046Z,11.30
2022-10-06T22:06:52.932Z,11.17
2022-10-06T22:09:21.277Z,11.08
2022-10-06T22:11:49.235Z,11.08
2022-10-06T22:14:20.225Z,11.16
2022-10-06T22:16:48.230Z,10.90
2022-10-06T22:19:16.331Z,11.01
2022-10-06T22:21:45.992Z,11.05
2022-10-06T22:24:15.316Z,10.78
2022-10-06T22:26:43.769Z,11.23
2022-10-06T22:29:13.283Z,11.02
2022-10-06T22:31:43.881Z,11.06
2022-10-06T22:34:12.918Z,11.10
2022-10-06T22:36:41.024Z,10.94
2022-10-06T22:39:09.006Z,10.93
2022-10-06T22:41:36.931Z,10.95
2022-10-06T22:44:04.946Z,10.83
2022-10-06T22:46:34.077Z,10.90
2022-10-06T22:49:04.033Z,10.82
2022-10-06T22:51:32.384Z,10.79
2022-10-06T22:54:01.139Z,10.73
2022-10-06T22:56:31.515Z,10.92
2022-10-06T22:59:00.333Z,10.83
2022-10-06T23:01:29.602Z,10.68
2022-10-06T23:03:58.137Z,10.76
2022-10-06T23:06:29.725Z,10.65
2022-10-06T23:08:57.902Z,10.61
2022-10-06T23:11:25.990Z,10.68
2022-10-06T23:13:53.910Z,10.68
2022-10-06T23:16:22.751Z,10.63
2022-10-06T23:18:50.796Z,10.58
2022-10-06T23:21:21.798Z,10.68
2022-10-06T23:23:53.436Z,10.71
2022-10-06T23:26:21.746Z,10.64
2022-10-06T23:28:53.493Z,10.66
2022-10-06T23:31:21.417Z,10.64
2022-10-06T23:33:49.505Z,10.70
2022-10-06T23:36:17.790Z,10.63
2022-10-06T23:38:45.904Z,10.68
2022-10-06T23:41:15.808Z,10.63
2022-10-06T23:43:43.924Z,10.72
2022-10-06T23:46:12.191Z,10.62
2022-10-06T23:48:40.328Z,10.68
2022-10-06T23:51:09.658Z,10.74
2022-10-06T23:53:37.617Z,10.58
2022-10-06T23:56:06.216Z,10.63
2022-10-06T23:58:35.893Z,10.62
